Terminal Aerodrome Forecast
Issued by NWS Charleston, WV

Current Version | Previous Version | Graphics & Text | Print | Product List | Glossary On
Versions: 1 2 3 4 5 6 7 8 9 10 11 12 13 14 15 16 17 18 19 20
072
FTUS41 KRLX 031139
TAFPKB
TAF
KPKB 031139Z 0312/0412 25011G20KT 4SM SHRA OVC025
     FM031400 18010G16KT P6SM BKN025
     FM031600 20010G16KT P6SM BKN040
     FM032000 22011G18KT P6SM SCT060
     FM040700 26007KT P6SM BKN025=

USA.gov is the U.S. government's official web portal to all federal, state and local government web resources and services.